createdAt,value
2023-01-23T00:00:40.218Z,102957.22
2023-01-23T00:01:35.141Z,102951.19
2023-01-23T00:02:26.910Z,102957.22
2023-01-23T00:03:19.008Z,102963.41
2023-01-23T00:04:13.790Z,102960.06
2023-01-23T00:05:06.129Z,102959.94
2023-01-23T00:06:00.078Z,102959.03
2023-01-23T00:06:52.259Z,102954.81
2023-01-23T00:07:43.697Z,102960.72
2023-01-23T00:08:35.983Z,102961.47
2023-01-23T00:09:27.506Z,102966.44
2023-01-23T00:10:19.476Z,102962.66
2023-01-23T00:11:15.195Z,102962.66
2023-01-23T00:12:06.938Z,102965.84
2023-01-23T00:12:58.618Z,102965.84
2023-01-23T00:13:50.837Z,102965.19
2023-01-23T00:14:42.550Z,102965.19
2023-01-23T00:15:34.528Z,102965.50
2023-01-23T00:16:28.664Z,102971.09
2023-01-23T00:17:20.173Z,102967.47
2023-01-23T00:18:11.621Z,102961.59
2023-01-23T00:19:03.124Z,102963.13
2023-01-23T00:19:55.187Z,102962.97
2023-01-23T00:20:46.711Z,102961.16
2023-01-23T00:21:38.465Z,102956.94
2023-01-23T00:22:30.425Z,102953.91
2023-01-23T00:23:21.895Z,102950.31
2023-01-23T00:24:13.484Z,102953.78
2023-01-23T00:25:06.807Z,102956.47
2023-01-23T00:26:06.320Z,102955.72
2023-01-23T00:26:57.805Z,102958.28
2023-01-23T00:27:49.361Z,102955.13
2023-01-23T00:28:42.594Z,102951.50
2023-01-23T00:29:34.090Z,102953.31
2023-01-23T00:30:25.763Z,102954.97
2023-01-23T00:31:21.106Z,102956.34
2023-01-23T00:32:14.140Z,102954.69
2023-01-23T00:33:05.684Z,102955.72
2023-01-23T00:34:01.655Z,102954.97
2023-01-23T00:34:53.328Z,102957.41
2023-01-23T00:35:44.952Z,102953.03
2023-01-23T00:36:38.848Z,102954.69
2023-01-23T00:37:30.274Z,102958.75
2023-01-23T00:38:21.813Z,102959.41
2023-01-23T00:39:20.154Z,102961.97
2023-01-23T00:40:13.231Z,102955.78
2023-01-23T00:41:04.841Z,102961.03
2023-01-23T00:41:57.198Z,102959.41
2023-01-23T00:42:48.869Z,102967.84
2023-01-23T00:43:42.239Z,102965.41
2023-01-23T00:44:35.390Z,102964.53
2023-01-23T00:45:27.073Z,102960.16
2023-01-23T00:46:22.829Z,102966.47
2023-01-23T00:47:14.366Z,102965.56
2023-01-23T00:48:06.089Z,102965.56
2023-01-23T00:48:57.877Z,102961.31
2023-01-23T00:49:50.161Z,102959.41
2023-01-23T00:50:41.704Z,102960.44
2023-01-23T00:51:34.539Z,102961.78
2023-01-23T00:52:27.596Z,102965.00
2023-01-23T00:53:19.914Z,102964.25
2023-01-23T00:54:11.660Z,102965.75
2023-01-23T00:55:04.133Z,102964.84
2023-01-23T00:55:55.702Z,102968.16
2023-01-23T00:56:48.252Z,102969.66
2023-01-23T00:57:39.975Z,102971.63
2023-01-23T00:58:32.624Z,102968.16
2023-01-23T00:59:24.624Z,102973.16
2023-01-23T01:00:17.345Z,102968.91
2023-01-23T01:01:09.723Z,102972.25
2023-01-23T01:02:01.478Z,102976.19
2023-01-23T01:02:53.057Z,102979.94
2023-01-23T01:03:45.243Z,102970.44
2023-01-23T01:04:37.177Z,102967.41
2023-01-23T01:05:28.601Z,102972.69
2023-01-23T01:06:20.297Z,102968.31
2023-01-23T01:07:12.494Z,102973.28
2023-01-23T01:08:05.405Z,102972.41
2023-01-23T01:08:58.177Z,102974.03
2023-01-23T01:09:51.427Z,102977.53
2023-01-23T01:10:43.157Z,102979.19
2023-01-23T01:11:34.613Z,102976.47
2023-01-23T01:12:26.733Z,102980.09
2023-01-23T01:13:21.198Z,102979.75
2023-01-23T01:14:12.725Z,102973.88
2023-01-23T01:15:05.727Z,102974.63
2023-01-23T01:15:57.270Z,102979.91
2023-01-23T01:16:48.924Z,102982.47
2023-01-23T01:17:40.419Z,102984.41
2023-01-23T01:18:32.717Z,102982.78
2023-01-23T01:19:24.235Z,102987.63
2023-01-23T01:20:21.500Z,102984.13
2023-01-23T01:21:15.279Z,102986.97
2023-01-23T01:22:06.962Z,102996.50
2023-01-23T01:23:00.442Z,102992.28
2023-01-23T01:23:51.944Z,102994.84
2023-01-23T01:24:43.434Z,102991.22
2023-01-23T01:25:35.449Z,102990.31
2023-01-23T01:26:26.979Z,102986.84
2023-01-23T01:27:18.692Z,102996.19
2023-01-23T01:28:10.451Z,102991.53
2023-01-23T01:29:02.404Z,102993.91
2023-01-23T01:29:53.910Z,102990.44
2023-01-23T01:30:45.549Z,102996.34
2023-01-23T01:31:37.149Z,102987.41
2023-01-23T01:32:28.654Z,102990.75
2023-01-23T01:33:20.140Z,102989.53
2023-01-23T01:34:13.858Z,102984.13
2023-01-23T01:35:07.252Z,102983.19
2023-01-23T01:35:58.926Z,102984.25
2023-01-23T01:36:51.726Z,102984.88
2023-01-23T01:37:43.835Z,102988.47
2023-01-23T01:38:35.617Z,102977.16
2023-01-23T01:39:27.162Z,102990.00
2023-01-23T01:40:24.990Z,102986.97
2023-01-23T01:41:17.430Z,102992.09
2023-01-23T01:42:08.965Z,102996.63
2023-01-23T01:43:04.847Z,102994.81
2023-01-23T01:43:57.322Z,102996.63
2023-01-23T01:45:01.437Z,102996.47
2023-01-23T01:46:24.987Z,102991.06
2023-01-23T01:47:16.449Z,102997.06
2023-01-23T01:48:08.191Z,102992.69
2023-01-23T01:49:07.465Z,102996.19
2023-01-23T01:50:04.865Z,102985.91
2023-01-23T01:50:59.353Z,102992.09
2023-01-23T01:51:55.936Z,102994.50
2023-01-23T01:52:48.336Z,102985.75
2023-01-23T01:53:40.722Z,102992.28
2023-01-23T01:54:32.342Z,102990.47
2023-01-23T01:55:23.883Z,102994.69
2023-01-23T01:56:18.567Z,102995.31
2023-01-23T01:57:20.119Z,103001.97
2023-01-23T01:58:13.931Z,102996.66
2023-01-23T01:59:07.818Z,103000.91
2023-01-23T02:00:18.134Z,103002.72
2023-01-23T02:01:10.506Z,103001.97
2023-01-23T02:02:14.513Z,103002.56
2023-01-23T02:03:06.766Z,103005.88
2023-01-23T02:04:00.356Z,103006.63
2023-01-23T02:05:01.458Z,103004.06
2023-01-23T02:05:53.361Z,103003.03
2023-01-23T02:06:45.756Z,103005.47
2023-01-23T02:07:46.933Z,103003.66
2023-01-23T02:09:07.407Z,103004.53
2023-01-23T02:10:03.905Z,103011.94
2023-01-23T02:10:56.709Z,103008.91
2023-01-23T02:11:49.904Z,103013.56
2023-01-23T02:12:48.372Z,103010.25
2023-01-23T02:13:42.825Z,103011.75
2023-01-23T02:14:34.941Z,103014.34
2023-01-23T02:15:27.499Z,103008.31
2023-01-23T02:16:22.140Z,103007.41
2023-01-23T02:17:13.821Z,103005.75
2023-01-23T02:18:05.459Z,103011.31
2023-01-23T02:19:07.235Z,103007.50
2023-01-23T02:20:05.644Z,103006.00
2023-01-23T02:21:03.589Z,103009.59
2023-01-23T02:22:19.866Z,103008.44
2023-01-23T02:24:10.001Z,103006.63
2023-01-23T02:25:23.569Z,103011.31
2023-01-23T02:26:25.080Z,103003.91
2023-01-23T02:27:17.009Z,103006.47
2023-01-23T02:28:10.702Z,103007.97
2023-01-23T02:29:05.226Z,103003.47
2023-01-23T02:30:06.049Z,103001.66
2023-01-23T02:30:57.802Z,103005.56
2023-01-23T02:31:52.794Z,103002.25
2023-01-23T02:32:45.643Z,103004.53
2023-01-23T02:33:37.229Z,103006.94
2023-01-23T02:34:29.794Z,103002.72
2023-01-23T02:35:30.472Z,103006.63
2023-01-23T02:36:32.244Z,103007.69
2023-01-23T02:37:31.824Z,103008.59
2023-01-23T02:38:29.114Z,103005.75
2023-01-23T02:39:21.488Z,103009.06
2023-01-23T02:40:17.107Z,103009.06
2023-01-23T02:41:13.735Z,103010.59
2023-01-23T02:42:06.719Z,103009.97
2023-01-23T02:43:21.323Z,103002.84
2023-01-23T02:44:38.577Z,103004.38
2023-01-23T02:45:31.829Z,103003.59
2023-01-23T02:46:24.936Z,103004.22
2023-01-23T02:47:16.414Z,103004.06
2023-01-23T02:48:08.773Z,103004.22
2023-01-23T02:49:02.473Z,103009.19
2023-01-23T02:49:54.152Z,103000.47
2023-01-23T02:50:46.572Z,103004.53
2023-01-23T02:51:38.383Z,103006.97
2023-01-23T02:52:31.857Z,103008.03
2023-01-23T02:53:23.437Z,103010.88
2023-01-23T02:54:17.431Z,103010.72
2023-01-23T02:55:09.090Z,103015.09
2023-01-23T02:56:00.928Z,103005.13
2023-01-23T02:56:52.695Z,103009.06
2023-01-23T02:57:47.244Z,103003.78
2023-01-23T02:58:56.969Z,103006.81
2023-01-23T03:00:07.411Z,103007.41
2023-01-23T03:01:00.521Z,103012.25
2023-01-23T03:01:53.375Z,103013.16
2023-01-23T03:02:47.625Z,103005.31
2023-01-23T03:03:42.164Z,103011.06
2023-01-23T03:04:33.767Z,103009.09
2023-01-23T03:05:25.506Z,103012.28
2023-01-23T03:06:18.072Z,103013.16
2023-01-23T03:07:13.851Z,103016.34
2023-01-23T03:08:05.968Z,103015.31
2023-01-23T03:08:59.768Z,103018.75
2023-01-23T03:09:51.799Z,103014.25
2023-01-23T03:10:43.297Z,103017.25
2023-01-23T03:11:35.859Z,103018.63
2023-01-23T03:12:28.941Z,103018.91
2023-01-23T03:13:20.915Z,103019.53
2023-01-23T03:14:16.315Z,103019.38
2023-01-23T03:15:09.889Z,103019.25
2023-01-23T03:16:01.504Z,103018.63
2023-01-23T03:16:55.124Z,103021.47
2023-01-23T03:17:49.717Z,103012.91
2023-01-23T03:18:53.495Z,103016.22
2023-01-23T03:19:45.949Z,103013.78
2023-01-23T03:20:39.978Z,103002.47
2023-01-23T03:21:33.201Z,103014.09
2023-01-23T03:22:24.906Z,103010.47
2023-01-23T03:23:16.923Z,103013.78
2023-01-23T03:24:11.530Z,103012.91
2023-01-23T03:25:03.091Z,103007.59
2023-01-23T03:25:58.429Z,103012.59
2023-01-23T03:26:53.702Z,103010.50
2023-01-23T03:27:49.313Z,103013.50
2023-01-23T03:28:59.390Z,103008.81
2023-01-23T03:30:09.639Z,103010.03
2023-01-23T03:31:01.602Z,103009.28
2023-01-23T03:31:54.075Z,103010.19
2023-01-23T03:32:46.742Z,103007.91
2023-01-23T03:33:39.247Z,103011.69
2023-01-23T03:34:32.117Z,103006.09
2023-01-23T03:35:23.871Z,103004.88
2023-01-23T03:36:18.205Z,103007.72
2023-01-23T03:37:12.237Z,103013.59
2023-01-23T03:38:04.931Z,103008.75
2023-01-23T03:39:14.846Z,103015.38
2023-01-23T03:40:25.816Z,103021.25
2023-01-23T03:41:27.358Z,103017.63
2023-01-23T03:42:23.956Z,103019.44
2023-01-23T03:43:17.602Z,103020.50
2023-01-23T03:44:13.266Z,103021.88
2023-01-23T03:45:06.685Z,103024.91
2023-01-23T03:46:00.439Z,103018.16
2023-01-23T03:46:53.563Z,103015.88
2023-01-23T03:47:45.080Z,103022.94
2023-01-23T03:48:36.856Z,103026.56
2023-01-23T03:49:29.425Z,103030.19
2023-01-23T03:50:23.506Z,103024.50
2023-01-23T03:51:15.192Z,103026.44
2023-01-23T03:52:06.763Z,103028.41
2023-01-23T03:52:58.379Z,103027.47
2023-01-23T03:53:50.573Z,103028.53
2023-01-23T03:54:42.254Z,103025.22
2023-01-23T03:55:34.323Z,103027.78
2023-01-23T03:56:25.954Z,103028.53
2023-01-23T03:57:17.828Z,103025.09
2023-01-23T03:58:11.971Z,103026.72
2023-01-23T03:59:06.261Z,103021.47
2023-01-23T03:59:58.517Z,103026.44
2023-01-23T04:00:55.246Z,103020.25
2023-01-23T04:01:47.893Z,103019.19
2023-01-23T04:02:39.543Z,103034.56
2023-01-23T04:03:31.357Z,103026.00
2023-01-23T04:04:23.027Z,103024.19
2023-01-23T04:05:15.013Z,103029.13
2023-01-23T04:06:06.521Z,103022.81
2023-01-23T04:06:57.975Z,103028.53
2023-01-23T04:07:53.404Z,103024.75
2023-01-23T04:08:45.013Z,103024.28
2023-01-23T04:09:37.036Z,103024.00
2023-01-23T04:10:29.188Z,103018.38
2023-01-23T04:11:28.152Z,103026.50
2023-01-23T04:12:20.613Z,103026.97
2023-01-23T04:13:13.539Z,103026.47
2023-01-23T04:14:05.571Z,103026.03
2023-01-23T04:14:57.473Z,103024.66
2023-01-23T04:15:49.127Z,103023.44
2023-01-23T04:16:41.159Z,103016.06
2023-01-23T04:17:33.538Z,103017.38
2023-01-23T04:18:25.365Z,103023.81
2023-01-23T04:19:20.961Z,103020.06
2023-01-23T04:20:13.409Z,103018.50
2023-01-23T04:21:06.944Z,103019.13
2023-01-23T04:21:58.948Z,103023.00
2023-01-23T04:22:50.563Z,103024.31
2023-01-23T04:23:44.159Z,103028.25
2023-01-23T04:24:35.808Z,103019.34
2023-01-23T04:25:28.501Z,103020.81
2023-01-23T04:26:20.125Z,103025.19
2023-01-23T04:27:11.717Z,103021.00
2023-01-23T04:28:03.294Z,103022.94
2023-01-23T04:28:55.301Z,103021.47
2023-01-23T04:29:49.997Z,103024.75
2023-01-23T04:30:43.325Z,103015.44
2023-01-23T04:31:47.049Z,103014.53
2023-01-23T04:32:38.791Z,103015.28
2023-01-23T04:33:30.453Z,103019.34
2023-01-23T04:34:23.086Z,103021.88
2023-01-23T04:35:17.122Z,103021.00
2023-01-23T04:36:10.368Z,103024.31
2023-01-23T04:37:01.856Z,103021.88
2023-01-23T04:37:54.517Z,103029.41
2023-01-23T04:38:46.895Z,103029.25
2023-01-23T04:39:44.876Z,103030.59
2023-01-23T04:40:36.702Z,103031.34
2023-01-23T04:41:31.428Z,103029.84
2023-01-23T04:42:27.388Z,103033.31
2023-01-23T04:43:31.979Z,103024.13
2023-01-23T04:44:24.951Z,103035.44
2023-01-23T04:45:55.896Z,103028.81
2023-01-23T04:47:04.231Z,103024.44
2023-01-23T04:47:55.808Z,103030.16
2023-01-23T04:48:48.907Z,103033.47
2023-01-23T04:49:40.831Z,103028.34
2023-01-23T04:50:33.646Z,103036.78
2023-01-23T04:51:25.635Z,103036.78
2023-01-23T04:52:17.149Z,103033.47
2023-01-23T04:53:17.726Z,103032.72
2023-01-23T04:54:10.623Z,103036.59
2023-01-23T04:55:02.784Z,103035.53
2023-01-23T04:55:54.576Z,103037.34
2023-01-23T04:56:47.304Z,103033.31
2023-01-23T04:57:40.862Z,103038.41
2023-01-23T04:58:39.796Z,103039.44
2023-01-23T04:59:33.292Z,103038.22
2023-01-23T05:00:24.951Z,103036.81
2023-01-23T05:01:23.745Z,103036.97
2023-01-23T05:02:21.311Z,103047.19
2023-01-23T05:03:14.231Z,103042.69
2023-01-23T05:04:09.981Z,103038.31
2023-01-23T05:05:02.465Z,103047.81
2023-01-23T05:05:54.146Z,103046.88
2023-01-23T05:06:46.467Z,103044.31
2023-01-23T05:07:39.036Z,103045.25
2023-01-23T05:08:33.771Z,103038.31
2023-01-23T05:09:35.945Z,103042.50
2023-01-23T05:10:27.697Z,103042.19
2023-01-23T05:11:21.705Z,103036.94
2023-01-23T05:12:13.602Z,103036.44
2023-01-23T05:13:06.128Z,103043.38
2023-01-23T05:13:57.880Z,103043.38
2023-01-23T05:14:49.609Z,103043.97
2023-01-23T05:15:42.667Z,103034.31
2023-01-23T05:16:34.424Z,103032.34
2023-01-23T05:17:52.001Z,103041.34
2023-01-23T05:18:44.351Z,103034.09
2023-01-23T05:19:36.191Z,103034.66
2023-01-23T05:20:29.965Z,103038.13
2023-01-23T05:21:25.682Z,103039.03
2023-01-23T05:22:17.928Z,103036.31
2023-01-23T05:23:09.696Z,103038.38
2023-01-23T05:24:10.596Z,103034.44
2023-01-23T05:25:02.882Z,103034.84
2023-01-23T05:25:55.664Z,103039.63
2023-01-23T05:26:48.632Z,103036.91
2023-01-23T05:27:40.971Z,103038.72
2023-01-23T05:28:32.775Z,103037.22
2023-01-23T05:29:24.287Z,103043.44
2023-01-23T05:30:25.143Z,103045.63
2023-01-23T05:31:23.659Z,103045.31
2023-01-23T05:32:35.151Z,103045.31
2023-01-23T05:33:32.808Z,103044.41
2023-01-23T05:34:24.330Z,103045.16
2023-01-23T05:35:16.284Z,103045.59
2023-01-23T05:36:08.842Z,103043.44
2023-01-23T05:37:01.565Z,103045.69
2023-01-23T05:37:54.559Z,103049.53
2023-01-23T05:38:48.886Z,103049.22
2023-01-23T05:39:40.756Z,103049.22
2023-01-23T05:40:38.301Z,103046.47
2023-01-23T05:41:38.666Z,103051.44
2023-01-23T05:42:49.466Z,103048.69
2023-01-23T05:44:07.190Z,103053.47
2023-01-23T05:45:21.551Z,103056.78
2023-01-23T05:46:14.237Z,103061.72
2023-01-23T05:47:15.712Z,103067.41
2023-01-23T05:48:08.485Z,103071.44
2023-01-23T05:49:00.264Z,103066.19
2023-01-23T05:49:51.865Z,103069.28
2023-01-23T05:50:43.377Z,103062.38
2023-01-23T05:51:36.067Z,103063.66
2023-01-23T05:52:29.474Z,103061.84
2023-01-23T05:53:21.007Z,103056.59
2023-01-23T05:54:12.890Z,103061.72
2023-01-23T05:55:08.749Z,103065.00
2023-01-23T05:56:07.983Z,103065.00
2023-01-23T05:57:07.089Z,103055.53
2023-01-23T05:58:17.457Z,103062.13
2023-01-23T05:59:16.063Z,103059.56
2023-01-23T06:00:14.936Z,103057.91
2023-01-23T06:01:06.786Z,103061.94
2023-01-23T06:02:27.812Z,103063.41
2023-01-23T06:03:55.339Z,103057.56
2023-01-23T06:05:08.406Z,103063.41
2023-01-23T06:06:23.016Z,103058.16
2023-01-23T06:07:16.875Z,103057.41
2023-01-23T06:08:08.498Z,103064.66
2023-01-23T06:09:00.455Z,103061.94
2023-01-23T06:09:52.163Z,103062.84
2023-01-23T06:10:43.732Z,103064.50
2023-01-23T06:11:35.698Z,103062.84
2023-01-23T06:12:27.233Z,103057.91
2023-01-23T06:13:19.643Z,103060.47
2023-01-23T06:14:11.620Z,103055.53
2023-01-23T06:15:04.123Z,103053.13
2023-01-23T06:15:56.626Z,103055.53
2023-01-23T06:16:49.604Z,103062.59
2023-01-23T06:17:41.985Z,103059.16
2023-01-23T06:18:33.569Z,103066.97
2023-01-23T06:19:25.293Z,103060.78
2023-01-23T06:20:17.023Z,103065.16
2023-01-23T06:21:10.982Z,103066.06
2023-01-23T06:22:04.161Z,103064.25
2023-01-23T06:23:03.010Z,103062.78
2023-01-23T06:23:54.558Z,103063.84
2023-01-23T06:24:46.231Z,103061.84
2023-01-23T06:25:38.406Z,103072.06
2023-01-23T06:26:32.835Z,103072.66
2023-01-23T06:27:24.443Z,103071.41
2023-01-23T06:28:16.739Z,103072.88
2023-01-23T06:29:09.338Z,103070.94
2023-01-23T06:30:00.849Z,103071.66
2023-01-23T06:30:52.490Z,103075.69
2023-01-23T06:31:51.753Z,103077.50
2023-01-23T06:32:45.287Z,103077.31
2023-01-23T06:33:40.759Z,103075.50
2023-01-23T06:34:36.737Z,103074.63
2023-01-23T06:35:29.931Z,103079.72
2023-01-23T06:36:21.466Z,103085.91
2023-01-23T06:37:13.697Z,103081.53
2023-01-23T06:38:08.361Z,103091.00
2023-01-23T06:39:00.875Z,103091.00
2023-01-23T06:39:58.775Z,103092.63
2023-01-23T06:40:50.468Z,103091.56
2023-01-23T06:41:52.849Z,103099.41
2023-01-23T06:42:50.992Z,103095.53
2023-01-23T06:43:42.819Z,103085.31
2023-01-23T06:44:40.579Z,103091.34
2023-01-23T06:45:32.307Z,103095.88
2023-01-23T06:46:24.303Z,103098.59
2023-01-23T06:47:19.370Z,103096.03
2023-01-23T06:48:18.572Z,103103.84
2023-01-23T06:49:10.577Z,103108.41
2023-01-23T06:50:03.547Z,103109.63
2023-01-23T06:51:01.471Z,103109.06
2023-01-23T06:51:53.276Z,103113.03
2023-01-23T06:52:48.542Z,103116.09
2023-01-23T06:53:40.234Z,103116.59
2023-01-23T06:54:32.350Z,103117.84
2023-01-23T06:55:26.958Z,103115.78
2023-01-23T06:56:18.769Z,103112.97
2023-01-23T06:57:12.910Z,103123.72
2023-01-23T06:58:04.534Z,103123.44
2023-01-23T06:58:56.374Z,103120.47
2023-01-23T06:59:53.101Z,103125.19
2023-01-23T07:00:46.053Z,103123.72
2023-01-23T07:01:56.598Z,103131.31
2023-01-23T07:02:52.993Z,103132.53
2023-01-23T07:03:45.109Z,103137.97
2023-01-23T07:04:36.599Z,103135.16
2023-01-23T07:05:28.552Z,103142.59
2023-01-23T07:06:20.128Z,103140.84
2023-01-23T07:07:12.500Z,103142.41
2023-01-23T07:08:06.037Z,103143.97
2023-01-23T07:08:57.640Z,103143.69
2023-01-23T07:09:49.697Z,103149.13
2023-01-23T07:10:44.700Z,103146.16
2023-01-23T07:11:37.280Z,103148.28
2023-01-23T07:12:30.616Z,103146.53
2023-01-23T07:13:22.526Z,103145.22
2023-01-23T07:14:15.393Z,103147.38
2023-01-23T07:15:09.478Z,103143.63
2023-01-23T07:16:05.578Z,103154.19
2023-01-23T07:16:57.280Z,103148.63
2023-01-23T07:17:49.913Z,103146.97
2023-01-23T07:18:41.422Z,103153.91
2023-01-23T07:19:34.562Z,103155.00
2023-01-23T07:20:29.436Z,103152.00
2023-01-23T07:21:23.117Z,103151.16
2023-01-23T07:22:18.541Z,103150.53
2023-01-23T07:23:10.336Z,103150.72
2023-01-23T07:24:01.843Z,103151.78
2023-01-23T07:24:53.553Z,103152.97
2023-01-23T07:25:45.045Z,103155.72
2023-01-23T07:26:36.677Z,103151.84
2023-01-23T07:27:28.423Z,103150.34
2023-01-23T07:28:19.878Z,103157.47
2023-01-23T07:29:11.651Z,103154.91
2023-01-23T07:30:06.004Z,103161.41
2023-01-23T07:30:59.683Z,103163.97
2023-01-23T07:31:51.394Z,103166.84
2023-01-23T07:32:43.483Z,103169.69
2023-01-23T07:33:35.017Z,103168.19
2023-01-23T07:34:26.966Z,103170.50
2023-01-23T07:35:18.547Z,103171.56
2023-01-23T07:36:10.468Z,103173.81
2023-01-23T07:37:02.431Z,103175.19
2023-01-23T07:37:54.069Z,103174.88
2023-01-23T07:38:45.585Z,103169.75
2023-01-23T07:39:37.192Z,103174.25
2023-01-23T07:40:29.160Z,103169.13
2023-01-23T07:41:20.791Z,103168.69
2023-01-23T07:42:12.284Z,103166.63
2023-01-23T07:43:06.473Z,103166.47
2023-01-23T07:43:57.979Z,103169.03
2023-01-23T07:44:49.432Z,103167.53
2023-01-23T07:45:41.033Z,103169.81
2023-01-23T07:46:32.857Z,103165.16
2023-01-23T07:47:24.683Z,103170.41
2023-01-23T07:48:16.724Z,103163.66
2023-01-23T07:49:08.190Z,103170.41
2023-01-23T07:49:59.843Z,103169.34
2023-01-23T07:50:51.451Z,103168.28
2023-01-23T07:51:42.953Z,103175.84
2023-01-23T07:52:34.668Z,103170.72
2023-01-23T07:53:26.116Z,103173.59
2023-01-23T07:54:17.819Z,103170.84
2023-01-23T07:55:09.823Z,103175.09
2023-01-23T07:56:05.143Z,103166.66
2023-01-23T07:56:56.660Z,103166.97
2023-01-23T07:57:48.331Z,103168.91
2023-01-23T07:58:39.974Z,103169.84
2023-01-23T07:59:31.444Z,103165.59
2023-01-23T08:00:25.244Z,103169.09
2023-01-23T08:01:19.198Z,103171.78
2023-01-23T08:02:11.273Z,103173.75
2023-01-23T08:03:03.138Z,103166.97
2023-01-23T08:03:54.884Z,103170.44
2023-01-23T08:04:46.345Z,103167.88
2023-01-23T08:05:38.272Z,103172.44
2023-01-23T08:06:29.762Z,103175.00
2023-01-23T08:07:21.658Z,103181.94
2023-01-23T08:08:14.121Z,103175.59
2023-01-23T08:09:05.809Z,103168.66
2023-01-23T08:09:57.613Z,103171.22
2023-01-23T08:10:49.242Z,103175.44
2023-01-23T08:11:41.042Z,103172.75
2023-01-23T08:12:32.779Z,103178.63
2023-01-23T08:13:24.302Z,103179.69
2023-01-23T08:14:15.885Z,103178.31
2023-01-23T08:15:08.622Z,103165.66
2023-01-23T08:16:00.257Z,103166.72
2023-01-23T08:16:53.282Z,103172.72
2023-01-23T08:17:45.458Z,103170.66
2023-01-23T08:18:37.026Z,103168.38
2023-01-23T08:19:28.618Z,103176.38
2023-01-23T08:20:20.439Z,103178.38
2023-01-23T08:21:12.497Z,103179.72
2023-01-23T08:22:04.984Z,103175.66
2023-01-23T08:22:58.987Z,103175.78
2023-01-23T08:23:51.077Z,103181.09
2023-01-23T08:24:42.609Z,103175.94
2023-01-23T08:25:35.018Z,103180.47
2023-01-23T08:26:26.520Z,103181.38
2023-01-23T08:27:18.026Z,103176.25
2023-01-23T08:28:09.484Z,103180.94
2023-01-23T08:29:01.252Z,103174.59
2023-01-23T08:29:52.742Z,103176.72
2023-01-23T08:30:44.218Z,103180.31
2023-01-23T08:31:37.074Z,103181.38
2023-01-23T08:32:28.894Z,103171.28
2023-01-23T08:33:21.345Z,103180.78
2023-01-23T08:34:12.859Z,103183.03
2023-01-23T08:35:04.928Z,103176.84
2023-01-23T08:35:58.588Z,103179.88
2023-01-23T08:36:50.431Z,103188.16
2023-01-23T08:37:42.393Z,103188.16
2023-01-23T08:38:34.138Z,103185.47
2023-01-23T08:39:25.690Z,103194.06
2023-01-23T08:40:17.463Z,103187.13
2023-01-23T08:41:11.683Z,103194.06
2023-01-23T08:42:03.314Z,103189.69
2023-01-23T08:42:57.239Z,103183.03
2023-01-23T08:43:49.891Z,103185.00
2023-01-23T08:44:41.419Z,103181.81
2023-01-23T08:45:32.900Z,103184.72
2023-01-23T08:46:24.538Z,103185.63
2023-01-23T08:47:15.995Z,103179.72
2023-01-23T08:48:09.192Z,103185.63
2023-01-23T08:49:00.667Z,103179.69
2023-01-23T08:49:52.197Z,103180.03
2023-01-23T08:50:43.883Z,103183.31
2023-01-23T08:51:35.520Z,103178.19
2023-01-23T08:52:27.232Z,103175.94
2023-01-23T08:53:18.704Z,103172.75
2023-01-23T08:54:10.548Z,103179.84
2023-01-23T08:55:02.152Z,103185.41
2023-01-23T08:55:54.233Z,103181.19
2023-01-23T08:56:45.847Z,103176.19
2023-01-23T08:57:37.707Z,103179.06
2023-01-23T08:58:29.440Z,103179.06
2023-01-23T08:59:21.092Z,103181.34
2023-01-23T09:00:13.206Z,103183.00
2023-01-23T09:01:04.882Z,103181.03
2023-01-23T09:01:56.451Z,103181.03
2023-01-23T09:02:48.145Z,103189.97
2023-01-23T09:03:39.994Z,103185.53
2023-01-23T09:04:32.209Z,103191.59
2023-01-23T09:05:23.667Z,103189.63
2023-01-23T09:06:18.410Z,103185.69
2023-01-23T09:07:09.924Z,103186.16
2023-01-23T09:08:01.495Z,103189.44
2023-01-23T09:08:53.032Z,103191.13
2023-01-23T09:09:44.535Z,103192.00
2023-01-23T09:10:36.394Z,103191.25
2023-01-23T09:11:27.827Z,103195.16
2023-01-23T09:12:19.716Z,103190.03
2023-01-23T09:13:11.747Z,103185.19
2023-01-23T09:14:03.189Z,103191.22
2023-01-23T09:14:54.698Z,103194.56
2023-01-23T09:15:46.154Z,103191.06
2023-01-23T09:16:39.116Z,103190.19
2023-01-23T09:17:30.624Z,103187.16
2023-01-23T09:18:22.985Z,103196.47
2023-01-23T09:19:15.708Z,103198.91
2023-01-23T09:20:08.708Z,103194.84
2023-01-23T09:21:00.349Z,103190.28
2023-01-23T09:21:57.181Z,103197.41
2023-01-23T09:22:48.654Z,103200.72
2023-01-23T09:23:40.325Z,103199.81
2023-01-23T09:24:31.812Z,103197.25
2023-01-23T09:25:23.555Z,103203.31
2023-01-23T09:26:15.605Z,103204.06
2023-01-23T09:27:07.496Z,103201.22
2023-01-23T09:27:59.162Z,103197.13
2023-01-23T09:28:51.083Z,103205.72
2023-01-23T09:29:42.770Z,103202.38
2023-01-23T09:30:35.230Z,103200.72
2023-01-23T09:31:26.765Z,103192.41
2023-01-23T09:32:18.337Z,103205.69
2023-01-23T09:33:10.015Z,103194.19
2023-01-23T09:34:03.260Z,103204.47
2023-01-23T09:34:55.157Z,103202.00
2023-01-23T09:35:51.573Z,103202.75
2023-01-23T09:36:43.799Z,103204.72
2023-01-23T09:37:58.541Z,103202.44
2023-01-23T09:38:50.683Z,103209.88
2023-01-23T09:39:44.227Z,103215.75
2023-01-23T09:40:44.853Z,103213.19
2023-01-23T09:41:39.082Z,103215.00
2023-01-23T09:42:34.620Z,103210.47
2023-01-23T09:43:26.111Z,103217.75
2023-01-23T09:44:35.894Z,103218.84
2023-01-23T09:45:29.612Z,103213.38
2023-01-23T09:46:39.354Z,103216.38
2023-01-23T09:47:53.298Z,103215.28
2023-01-23T09:48:46.737Z,103219.31
2023-01-23T09:49:46.438Z,103217.38
2023-01-23T09:50:52.295Z,103217.81
2023-01-23T09:52:03.437Z,103219.00
2023-01-23T09:53:11.998Z,103219.03
2023-01-23T09:54:34.665Z,103222.53
2023-01-23T09:55:57.954Z,103216.81
2023-01-23T09:56:52.431Z,103227.09
2023-01-23T09:57:55.210Z,103225.41
2023-01-23T09:59:07.527Z,103227.69
2023-01-23T10:00:13.720Z,103229.66
2023-01-23T10:01:13.458Z,103227.84
2023-01-23T10:02:20.066Z,103234.03
2023-01-23T10:03:15.955Z,103231.03
2023-01-23T10:04:11.945Z,103231.78
2023-01-23T10:05:03.845Z,103233.59
2023-01-23T10:06:16.629Z,103235.13
2023-01-23T10:07:26.243Z,103227.22
2023-01-23T10:08:42.798Z,103235.09
2023-01-23T10:10:08.202Z,103231.25
2023-01-23T10:11:10.720Z,103227.66
2023-01-23T10:12:32.792Z,103226.88
2023-01-23T10:13:59.393Z,103228.69
2023-01-23T10:15:05.830Z,103230.03
2023-01-23T10:16:12.621Z,103229.94
2023-01-23T10:17:13.695Z,103227.19
2023-01-23T10:18:32.781Z,103233.69
2023-01-23T10:20:03.583Z,103233.22
2023-01-23T10:20:55.186Z,103238.34
2023-01-23T10:22:04.351Z,103227.31
2023-01-23T10:23:07.537Z,103235.63
2023-01-23T10:24:26.477Z,103233.69
2023-01-23T10:25:24.289Z,103232.56
2023-01-23T10:26:23.424Z,103229.81